Monument, CO

11:10 PM MDT on September 16, 2014 (GMT -0600)
Monument Pass | Change Station
CLOSE
Current Station
Airport
Location: Monument Pass,
Elevation: 7060 ft
Nearby Weather Stations

Elev 7060 ft 39.22 °N, 104.64 °W | Updated 17 minutes ago

Clear
Clear
55 °F
Feels Like 55 °F
N
10
Wind Variable Wind from SSE

Today
High -- | Low -- °F
--% Chance of Precip.
Yesterday
High -- | Low -- °F
Precip. -- in
6:41 AM 7:06 PM
Last Quarter, 39% visible
Pressure 30.25 in
Visibility 10.0 miles
Clouds Clear
Dew Point 34 °F
Humidity 44%
Rainfall 0.00 in
Snow Depth 0 in , 188 in , 0 in
UV 0 out of 12
Pollen 5.80 out of 12
Ozone Good
PM2.5 Good
Flu Activity Not available.
METAR KMNH 170453Z AUTO 16009KT 10SM CLR 13/01 A3025 RMK AO2

More Conditions Fewer Conditions

Pressure 30.25 in
Visibility 10.0 miles
Clouds Clear
Dew Point 34 °F
Humidity 44%
Rainfall 0.00 in
Snow Depth 0 in , 188 in , 0 in
UV 0 out of 12
Pollen 5.80 out of 12
Ozone Good
PM2.5 Good
Flu Activity Not available.
METAR KMNH 170453Z AUTO 16009KT 10SM CLR 13/01 A3025 RMK AO2

More Conditions Fewer Conditions

10-Day Weather Forecast

Almanac

Astronomy

Sep. 16, 2014 Rise Set
Actual Time 6:41 AM MDT 7:06 PM MDT
Civil Twilight 6:14 AM MDT 7:32 PM MDT
Nautical Twilight 5:43 AM MDT 8:04 PM MDT
Astronomical Twilight 5:11 AM MDT 8:36 PM MDT
Moon No Moon Rise 2:29 PM MDT (9/16)
Length of Visible Light 13h 17m
Length of Day
12h 24m
Tomorrow will be 2m 31s shorter.
Last Quarter, 39% of the Moon is Illuminated
Sep 17
Last Quarter
Sep 24
New
Oct 1
First Quarter
Oct 8
Full
Oct 15
Last Quarter

Yesterday's Extremes

State Highs State Lows

Community

WunderPhotos

Upload Photos

1,753,968 photos uploaded!

Nearby

Air Quality

  Air Quality AQ Index Pollutant
Yesterday Good
OZONE
Yesterday Good
PM2.5
Current Good
OZONE
Current Good
PM2.5
Tuesday Good
PM2.5
Tuesday Good
OZONE
Wednesday Good
PM2.5
Wednesday Good
OZONE

Snow Depth

Station Depth Elevation
Zirkel 0 in 9340 ft
Independence Pass 188 in 10600 ft
Joe Wright 0 in 10120 ft
Lizard Head Pass 0 in 10200 ft
Overland Reservoir 0 in 9880 ft

Earthquake Activity

City Distance Mag. Time & Date
No recent earthquake activity has been reported nearby.
Minimum magnitude displayed is 2.5.

Coastal Water Temperatures

Place Temperature
No Stations Reporting

Nearby Weather Stations